Terminal Aerodrome Forecast
Issued by NWS

Home | Current Version | Previous Version | Text Only | Print | Product List | Glossary On
Versions: 1 2 3 4 5 6 7 8 9 10 11 12 13 14
291
FTUS43 KBIS 050534
TAFMOT
TAF
KMOT 050534Z 0506/0606 28005KT P6SM BKN110
     FM051700 27009KT P6SM SCT070
     FM052200 26011KT P6SM BKN150
     FM060200 25007KT P6SM BKN250=

USA.gov is the U.S. government's official web portal to all federal, state and local government web resources and services.